Cincinnati, Ohio
Traffic Map
Current Weather Conditions
Cincinnati, Ohio
Clear
Clear

Feels Like: -2°
Wind Chill: -2° Ceiling: Unl
Heat Index: Visibility: 10mi
Dew Point: -7° Wind: 7mph
Humidity: 56% Direction: 190° (S)
Pressure: 30.38in Gusts: 0mph
Raw Report DataKLUK 052353Z 19006KT 10SM CLR 01/M07 A3038 RMK AO2 SLP294 T00111067 10061 20011 53004
Traffic Incident Summary
Active as of:
Severity:
Category:
InformationThere was an issue retrieving the traffic information for this location. Please try a different location or try again shortly.
Advertisements
Track Severe Weather on mobile